createdAt,value
2023-05-16T00:02:05.160Z,96524.44
2023-05-16T00:04:31.885Z,96565.72
2023-05-16T00:06:58.472Z,96531.38
2023-05-16T00:09:24.925Z,96555.16
2023-05-16T00:11:51.318Z,96555.97
2023-05-16T00:14:17.739Z,96553.56
2023-05-16T00:16:44.211Z,96547.69
2023-05-16T00:19:10.846Z,96551.34
2023-05-16T00:21:37.355Z,96548.34
2023-05-16T00:24:04.190Z,96538.00
2023-05-16T00:26:30.729Z,96530.72
2023-05-16T00:28:57.130Z,96530.53
2023-05-16T00:31:23.581Z,96536.88
2023-05-16T00:33:50.099Z,96502.44
2023-05-16T00:36:16.533Z,96524.00
2023-05-16T00:38:43.037Z,96536.19
2023-05-16T00:41:09.532Z,96544.41
2023-05-16T00:43:36.010Z,96535.22
2023-05-16T00:46:02.656Z,96539.84
2023-05-16T00:48:29.231Z,96532.16
2023-05-16T00:50:56.023Z,96527.13
2023-05-16T00:53:23.474Z,96543.31
2023-05-16T00:55:49.981Z,96525.72
2023-05-16T00:58:16.474Z,96513.66
2023-05-16T01:00:43.007Z,96525.66
2023-05-16T01:03:09.618Z,96547.91
2023-05-16T01:05:36.259Z,96537.66
2023-05-16T01:08:02.775Z,96523.03
2023-05-16T01:10:34.260Z,96525.06
2023-05-16T01:13:01.713Z,96513.22
2023-05-16T01:15:32.998Z,96531.78
2023-05-16T01:18:10.895Z,96514.47
2023-05-16T01:20:38.133Z,96511.91
2023-05-16T01:23:23.418Z,96502.25
2023-05-16T01:25:56.060Z,96519.50
2023-05-16T01:28:22.573Z,96517.25
2023-05-16T01:30:49.154Z,96488.38
2023-05-16T01:33:15.576Z,96500.25
2023-05-16T01:35:51.350Z,96510.75
2023-05-16T01:38:24.766Z,96522.31
2023-05-16T01:40:51.151Z,96508.88
2023-05-16T01:43:17.832Z,96512.88
2023-05-16T01:45:47.757Z,96497.31
2023-05-16T01:48:16.883Z,96508.66
2023-05-16T01:50:45.840Z,96543.28
2023-05-16T01:53:13.946Z,96477.09
2023-05-16T01:55:51.250Z,96503.69
2023-05-16T01:58:19.229Z,96497.44
2023-05-16T02:00:45.788Z,96503.28
2023-05-16T02:03:12.581Z,96480.94
2023-05-16T02:05:39.144Z,96488.53
2023-05-16T02:08:06.395Z,96491.22
2023-05-16T02:10:32.852Z,96504.59
2023-05-16T02:12:59.334Z,96515.97
2023-05-16T02:15:26.044Z,96518.94
2023-05-16T02:17:54.704Z,96479.75
2023-05-16T02:20:21.231Z,96510.91
2023-05-16T02:22:47.761Z,96505.06
2023-05-16T02:25:14.719Z,96494.91
2023-05-16T02:27:41.369Z,96470.91
2023-05-16T02:30:08.217Z,96503.25
2023-05-16T02:32:34.781Z,96519.78
2023-05-16T02:35:01.267Z,96500.84
2023-05-16T02:37:27.670Z,96497.25
2023-05-16T02:39:54.131Z,96500.59
2023-05-16T02:42:20.586Z,96519.19
2023-05-16T02:44:47.071Z,96519.09
2023-05-16T02:47:13.657Z,96513.41
2023-05-16T02:49:40.068Z,96514.81
2023-05-16T02:52:06.547Z,96520.50
2023-05-16T02:54:33.063Z,96521.97
2023-05-16T02:56:59.509Z,96533.97
2023-05-16T02:59:26.269Z,96538.94
2023-05-16T03:01:52.767Z,96530.97
2023-05-16T03:04:19.533Z,96540.03
2023-05-16T03:06:46.029Z,96528.47
2023-05-16T03:09:12.441Z,96518.50
2023-05-16T03:11:38.956Z,96521.97
2023-05-16T03:14:05.442Z,96536.94
2023-05-16T03:16:31.914Z,96531.69
2023-05-16T03:18:58.581Z,96525.47
2023-05-16T03:21:25.105Z,96536.94
2023-05-16T03:23:51.542Z,96526.09
2023-05-16T03:26:17.928Z,96562.31
2023-05-16T03:28:44.371Z,96526.28
2023-05-16T03:31:10.840Z,96536.25
2023-05-16T03:33:37.356Z,96540.56
2023-05-16T03:36:03.878Z,96530.44
2023-05-16T03:38:30.352Z,96536.94
2023-05-16T03:40:56.846Z,96531.75
2023-05-16T03:43:23.284Z,96526.16
2023-05-16T03:45:49.850Z,96515.28
2023-05-16T03:48:16.405Z,96544.31
2023-05-16T03:50:42.872Z,96545.09
2023-05-16T03:53:09.513Z,96535.94
2023-05-16T03:55:35.958Z,96531.16
2023-05-16T03:58:02.586Z,96540.94
2023-05-16T04:00:29.107Z,96520.44
2023-05-16T04:02:55.697Z,96500.38
2023-05-16T04:05:22.215Z,96537.13
2023-05-16T04:07:48.782Z,96549.50
2023-05-16T04:10:15.459Z,96538.38
2023-05-16T04:12:42.502Z,96549.06
2023-05-16T04:15:10.367Z,96559.63
2023-05-16T04:17:36.949Z,96556.91
2023-05-16T04:20:03.639Z,96550.41
2023-05-16T04:22:30.092Z,96528.97
2023-05-16T04:24:56.555Z,96534.44
2023-05-16T04:27:23.096Z,96553.84
2023-05-16T04:29:49.610Z,96517.63
2023-05-16T04:32:16.096Z,96538.47
2023-05-16T04:34:42.602Z,96534.38
2023-05-16T04:37:09.101Z,96533.03
2023-05-16T04:39:35.805Z,96550.97
2023-05-16T04:42:02.297Z,96555.69
2023-05-16T04:44:28.671Z,96534.81
2023-05-16T04:46:55.435Z,96501.31
2023-05-16T04:49:22.211Z,96538.28
2023-05-16T04:51:48.696Z,96546.28
2023-05-16T04:54:15.353Z,96566.94
2023-05-16T04:56:41.813Z,96544.00
2023-05-16T04:59:08.346Z,96525.56
2023-05-16T05:01:34.782Z,96557.81
2023-05-16T05:04:01.373Z,96520.38
2023-05-16T05:06:27.785Z,96519.09
2023-05-16T05:08:54.130Z,96536.91
2023-05-16T05:11:20.631Z,96556.75
2023-05-16T05:13:47.065Z,96548.84
2023-05-16T05:16:13.491Z,96541.22
2023-05-16T05:18:40.057Z,96570.38
2023-05-16T05:21:06.629Z,96535.63
2023-05-16T05:23:33.059Z,96554.41
2023-05-16T05:25:59.753Z,96570.50
2023-05-16T05:28:26.149Z,96551.28
2023-05-16T05:30:52.703Z,96564.59
2023-05-16T05:33:19.265Z,96561.72
2023-05-16T05:35:45.767Z,96514.50
2023-05-16T05:38:12.522Z,96554.88
2023-05-16T05:40:38.940Z,96561.25
2023-05-16T05:43:05.514Z,96577.06
2023-05-16T05:45:32.225Z,96573.44
2023-05-16T05:47:58.646Z,96560.28
2023-05-16T05:50:25.298Z,96571.06
2023-05-16T05:52:51.817Z,96570.97
2023-05-16T05:55:18.273Z,96522.72
2023-05-16T05:57:44.750Z,96533.09
2023-05-16T06:00:11.643Z,96553.06
2023-05-16T06:02:38.173Z,96527.47
2023-05-16T06:05:04.837Z,96574.34
2023-05-16T06:07:31.481Z,96525.63
2023-05-16T06:09:57.998Z,96547.56
2023-05-16T06:12:24.457Z,96538.81
2023-05-16T06:14:50.995Z,96551.41
2023-05-16T06:17:17.710Z,96542.50
2023-05-16T06:19:44.519Z,96531.78
2023-05-16T06:22:10.959Z,96525.03
2023-05-16T06:24:37.318Z,96552.38
2023-05-16T06:27:03.769Z,96550.56
2023-05-16T06:29:30.235Z,96534.88
2023-05-16T06:31:56.975Z,96541.25
2023-05-16T06:34:23.410Z,96547.09
2023-05-16T06:36:49.906Z,96547.44
2023-05-16T06:39:16.258Z,96545.13
2023-05-16T06:41:42.748Z,96557.56
2023-05-16T06:44:09.304Z,96531.94
2023-05-16T06:46:36.027Z,96522.72
2023-05-16T06:49:02.543Z,96550.56
2023-05-16T06:51:29.075Z,96561.56
2023-05-16T06:53:55.549Z,96544.13
2023-05-16T06:56:22.037Z,96541.44
2023-05-16T06:58:48.664Z,96562.91
2023-05-16T07:01:15.273Z,96565.41
2023-05-16T07:03:41.976Z,96537.00
2023-05-16T07:06:08.686Z,96576.47
2023-05-16T07:08:35.231Z,96574.44
2023-05-16T07:11:01.750Z,96557.81
2023-05-16T07:13:28.268Z,96532.53
2023-05-16T07:15:54.690Z,96543.28
2023-05-16T07:18:21.109Z,96550.03
2023-05-16T07:20:47.558Z,96555.59
2023-05-16T07:23:14.030Z,96545.06
2023-05-16T07:25:40.512Z,96553.66
2023-05-16T07:28:07.162Z,96544.88
2023-05-16T07:30:33.631Z,96534.78
2023-05-16T07:33:00.217Z,96545.03
2023-05-16T07:35:27.094Z,96531.53
2023-05-16T07:37:53.751Z,96570.88
2023-05-16T07:40:20.240Z,96535.66
2023-05-16T07:42:46.841Z,96541.56
2023-05-16T07:45:13.467Z,96546.53
2023-05-16T07:47:39.935Z,96552.25
2023-05-16T07:50:06.667Z,96544.75
2023-05-16T07:52:33.107Z,96563.16
2023-05-16T07:54:59.549Z,96536.50
2023-05-16T07:57:26.034Z,96543.59
2023-05-16T07:59:52.832Z,96525.75
2023-05-16T08:02:19.542Z,96557.84
2023-05-16T08:04:46.951Z,96550.88
2023-05-16T08:07:13.537Z,96551.63
2023-05-16T08:09:40.045Z,96553.47
2023-05-16T08:12:06.748Z,96560.78
2023-05-16T08:14:33.252Z,96565.34
2023-05-16T08:16:59.853Z,96539.94
2023-05-16T08:19:26.430Z,96548.22
2023-05-16T08:21:52.942Z,96572.72
2023-05-16T08:24:19.351Z,96551.44
2023-05-16T08:26:45.876Z,96550.69
2023-05-16T08:29:12.280Z,96572.84
2023-05-16T08:31:39.408Z,96560.69
2023-05-16T08:34:06.068Z,96573.53
2023-05-16T08:36:32.586Z,96524.38
2023-05-16T08:38:59.014Z,96572.31
2023-05-16T08:41:25.599Z,96587.06
2023-05-16T08:43:52.263Z,96563.75
2023-05-16T08:46:20.469Z,96570.25
2023-05-16T08:48:47.021Z,96546.31
2023-05-16T08:51:13.502Z,96551.22
2023-05-16T08:53:40.450Z,96565.09
2023-05-16T08:56:07.010Z,96547.75
2023-05-16T08:58:33.619Z,96559.63
2023-05-16T09:01:00.160Z,96564.59
2023-05-16T09:03:26.670Z,96560.81
2023-05-16T09:05:53.278Z,96542.91
2023-05-16T09:08:20.203Z,96557.41
2023-05-16T09:10:46.814Z,96562.41
2023-05-16T09:13:13.314Z,96571.53
2023-05-16T09:15:39.707Z,96534.91
2023-05-16T09:18:06.263Z,96566.88
2023-05-16T09:20:32.782Z,96563.47
2023-05-16T09:22:59.570Z,96552.38
2023-05-16T09:27:56.355Z,96554.25
2023-05-16T09:30:28.362Z,96532.13
2023-05-16T09:32:54.948Z,96556.34
2023-05-16T09:35:34.985Z,96547.75
2023-05-16T09:38:12.810Z,96542.81
2023-05-16T09:40:40.521Z,96541.53
2023-05-16T09:43:07.147Z,96574.06
2023-05-16T09:45:33.916Z,96538.19
2023-05-16T09:48:10.828Z,96536.56
2023-05-16T09:50:37.853Z,96512.97
2023-05-16T09:53:04.432Z,96554.19
2023-05-16T09:55:31.035Z,96525.31
2023-05-16T09:57:57.636Z,96533.22
2023-05-16T10:00:28.928Z,96554.28
2023-05-16T10:02:55.553Z,96547.56
2023-05-16T10:05:22.149Z,96545.78
2023-05-16T10:07:48.678Z,96537.22
2023-05-16T10:10:15.137Z,96509.00
2023-05-16T10:12:41.627Z,96514.78
2023-05-16T10:15:08.303Z,96525.47
2023-05-16T10:17:36.032Z,96525.25
2023-05-16T10:20:03.331Z,96528.19
2023-05-16T10:22:29.852Z,96522.63
2023-05-16T10:25:01.166Z,96555.84
2023-05-16T10:27:27.740Z,96536.78
2023-05-16T10:29:55.139Z,96514.22
2023-05-16T10:32:23.375Z,96488.75
2023-05-16T10:34:50.102Z,96513.75
2023-05-16T10:37:16.552Z,96528.31
2023-05-16T10:39:43.111Z,96545.25
2023-05-16T10:42:09.613Z,96492.97
2023-05-16T10:44:36.189Z,96469.22
2023-05-16T10:47:03.254Z,96507.53
2023-05-16T10:49:30.448Z,96521.84
2023-05-16T10:52:07.482Z,96524.69
2023-05-16T10:54:52.591Z,96547.91
2023-05-16T10:57:19.562Z,96541.22
2023-05-16T10:59:46.656Z,96558.53
2023-05-16T11:02:23.118Z,96555.44
2023-05-16T11:04:49.864Z,96541.97
2023-05-16T11:07:17.223Z,96553.69
2023-05-16T11:09:44.084Z,96591.66
2023-05-16T11:12:10.539Z,96565.41
2023-05-16T11:14:40.675Z,96570.31
2023-05-16T11:17:22.666Z,96556.03
2023-05-16T11:19:49.945Z,96568.66
2023-05-16T11:22:19.438Z,96575.97
2023-05-16T11:24:52.910Z,96581.19
2023-05-16T11:27:23.855Z,96594.06
2023-05-16T11:29:50.466Z,96587.63
2023-05-16T11:32:18.952Z,96583.03
2023-05-16T11:34:45.399Z,96598.03
2023-05-16T11:37:11.940Z,96598.16
2023-05-16T11:39:38.615Z,96580.69
2023-05-16T11:42:05.165Z,96584.31
2023-05-16T11:44:31.685Z,96584.97
2023-05-16T11:47:00.498Z,96582.56
2023-05-16T11:49:27.494Z,96577.97
2023-05-16T11:51:56.533Z,96582.59
2023-05-16T11:54:23.213Z,96569.69
2023-05-16T11:56:50.135Z,96599.75
2023-05-16T11:59:19.715Z,96581.81
2023-05-16T12:01:46.602Z,96582.56
2023-05-16T12:04:13.615Z,96608.38
2023-05-16T12:06:40.482Z,96606.59
2023-05-16T12:09:07.310Z,96592.94
2023-05-16T12:11:33.729Z,96603.09
2023-05-16T12:14:00.270Z,96578.63
2023-05-16T12:16:26.866Z,96607.22
2023-05-16T12:18:53.497Z,96578.59
2023-05-16T12:21:19.963Z,96589.72
2023-05-16T12:23:46.644Z,96591.66
2023-05-16T12:26:13.135Z,96606.94
2023-05-16T12:28:39.674Z,96589.13
2023-05-16T12:31:31.743Z,96617.25
2023-05-16T12:33:59.136Z,96576.06
2023-05-16T12:36:25.818Z,96609.47
2023-05-16T12:38:55.391Z,96576.53
2023-05-16T12:41:22.347Z,96597.25
2023-05-16T12:43:49.318Z,96601.56
2023-05-16T12:46:16.406Z,96579.75
2023-05-16T12:48:43.194Z,96596.13
2023-05-16T12:51:18.001Z,96607.91
2023-05-16T12:53:54.464Z,96605.81
2023-05-16T12:56:28.667Z,96631.78
2023-05-16T12:58:55.302Z,96617.44
2023-05-16T13:01:21.885Z,96630.31
2023-05-16T13:03:48.775Z,96620.28
2023-05-16T13:06:15.446Z,96608.03
2023-05-16T13:08:42.004Z,96611.69
2023-05-16T13:11:08.663Z,96612.38
2023-05-16T13:13:36.986Z,96623.06
2023-05-16T13:16:03.837Z,96603.19
2023-05-16T13:18:30.686Z,96629.03
2023-05-16T13:20:57.334Z,96615.38
2023-05-16T13:23:23.831Z,96625.44
2023-05-16T13:25:50.357Z,96602.97
2023-05-16T13:28:16.875Z,96613.13
2023-05-16T13:30:43.337Z,96620.78
2023-05-16T13:33:10.076Z,96613.31
2023-05-16T13:35:36.652Z,96610.59
2023-05-16T13:38:03.251Z,96637.19
2023-05-16T13:40:30.119Z,96612.84
2023-05-16T13:42:56.686Z,96623.66
2023-05-16T13:45:23.260Z,96611.41
2023-05-16T13:47:49.879Z,96622.06
2023-05-16T13:50:16.437Z,96626.22
2023-05-16T13:52:43.041Z,96640.53
2023-05-16T13:55:09.799Z,96628.94
2023-05-16T13:57:36.467Z,96630.03
2023-05-16T14:00:43.610Z,96618.09
2023-05-16T14:02:49.983Z,96634.66
2023-05-16T14:05:16.579Z,96622.88
2023-05-16T14:07:45.356Z,96617.59
2023-05-16T14:10:13.225Z,96621.28
2023-05-16T14:12:39.742Z,96628.78
2023-05-16T14:15:06.571Z,96636.25
2023-05-16T14:17:51.788Z,96629.09
2023-05-16T14:20:18.430Z,96632.91
2023-05-16T14:22:45.218Z,96621.13
2023-05-16T14:25:11.746Z,96631.63
2023-05-16T14:27:38.252Z,96640.88
2023-05-16T14:30:04.946Z,96646.94
2023-05-16T14:32:31.640Z,96630.69
2023-05-16T14:34:58.091Z,96641.69
2023-05-16T14:37:24.777Z,96632.09
2023-05-16T14:39:51.316Z,96592.78
2023-05-16T14:42:17.792Z,96654.41
2023-05-16T14:44:44.553Z,96642.47
2023-05-16T14:47:11.014Z,96656.50
2023-05-16T14:49:37.668Z,96638.81
2023-05-16T14:52:04.248Z,96643.13
2023-05-16T14:54:30.845Z,96648.19
2023-05-16T14:56:57.273Z,96657.44
2023-05-16T14:59:23.718Z,96645.19
2023-05-16T15:01:50.281Z,96663.50
2023-05-16T15:04:16.814Z,96670.34
2023-05-16T15:06:43.392Z,96650.44
2023-05-16T15:09:09.965Z,96660.44
2023-05-16T15:11:36.462Z,96655.03
2023-05-16T15:14:02.967Z,96652.66
2023-05-16T15:16:29.918Z,96655.03
2023-05-16T15:18:56.477Z,96645.50
2023-05-16T15:21:22.979Z,96650.72
2023-05-16T15:23:49.584Z,96658.03
2023-05-16T15:26:17.296Z,96665.06
2023-05-16T15:28:43.798Z,96642.59
2023-05-16T15:31:10.346Z,96673.59
2023-05-16T15:33:36.822Z,96676.84
2023-05-16T15:36:03.327Z,96656.94
2023-05-16T15:38:29.847Z,96664.94
2023-05-16T15:41:14.214Z,96682.59
2023-05-16T15:43:42.847Z,96670.00
2023-05-16T15:46:09.557Z,96675.75
2023-05-16T15:48:36.074Z,96694.03
2023-05-16T15:51:02.769Z,96659.31
2023-05-16T15:53:29.278Z,96675.44
2023-05-16T15:55:55.679Z,96672.03
2023-05-16T15:58:22.866Z,96684.94
2023-05-16T16:00:49.503Z,96673.81
2023-05-16T16:03:16.055Z,96677.50
2023-05-16T16:05:42.699Z,96663.63
2023-05-16T16:08:09.151Z,96683.22
2023-05-16T16:10:35.656Z,96666.16
2023-05-16T16:13:05.224Z,96678.84
2023-05-16T16:15:33.330Z,96650.38
2023-05-16T16:18:00.454Z,96653.56
2023-05-16T16:20:27.175Z,96667.22
2023-05-16T16:22:53.716Z,96702.91
2023-05-16T16:25:20.336Z,96674.53
2023-05-16T16:27:46.934Z,96681.56
2023-05-16T16:30:13.474Z,96682.63
2023-05-16T16:32:39.960Z,96656.41
2023-05-16T16:35:06.684Z,96675.97
2023-05-16T16:37:33.099Z,96670.78
2023-05-16T16:39:59.613Z,96684.19
2023-05-16T16:42:26.131Z,96684.38
2023-05-16T16:44:52.945Z,96693.28
2023-05-16T16:47:19.554Z,96690.56
2023-05-16T16:49:46.098Z,96711.91
2023-05-16T16:52:12.572Z,96720.47
2023-05-16T16:54:38.974Z,96694.16
2023-05-16T16:57:05.806Z,96738.19
2023-05-16T16:59:32.303Z,96785.91
2023-05-16T17:01:58.832Z,96745.84
2023-05-16T17:04:25.458Z,96724.50
2023-05-16T17:06:51.983Z,96729.19
2023-05-16T17:09:18.549Z,96745.84
2023-05-16T17:11:45.046Z,96745.72
2023-05-16T17:14:11.526Z,96786.13
2023-05-16T17:16:38.168Z,96754.13
2023-05-16T17:19:05.068Z,96783.31
2023-05-16T17:21:31.682Z,96773.66
2023-05-16T17:23:58.357Z,96790.28
2023-05-16T17:26:25.054Z,96765.13
2023-05-16T17:28:51.554Z,96774.38
2023-05-16T17:31:18.089Z,96788.53
2023-05-16T17:33:44.662Z,96750.06
2023-05-16T17:36:11.132Z,96774.00
2023-05-16T17:38:37.602Z,96785.22
2023-05-16T17:41:04.286Z,96770.03
2023-05-16T17:43:30.680Z,96756.34
2023-05-16T17:45:57.110Z,96759.16
2023-05-16T17:48:23.771Z,96752.38
2023-05-16T17:50:50.701Z,96797.41
2023-05-16T17:53:17.241Z,96781.44
2023-05-16T17:55:44.107Z,96765.03
2023-05-16T17:58:10.633Z,96791.81
2023-05-16T18:00:37.106Z,96797.81
2023-05-16T18:03:03.721Z,96798.84
2023-05-16T18:05:30.389Z,96775.06
2023-05-16T18:07:57.100Z,96788.56
2023-05-16T18:10:23.717Z,96781.91
2023-05-16T18:12:50.232Z,96785.50
2023-05-16T18:15:16.785Z,96799.91
2023-05-16T18:17:43.597Z,96790.78
2023-05-16T18:20:10.531Z,96815.28
2023-05-16T18:22:37.302Z,96784.41
2023-05-16T18:25:04.316Z,96772.84
2023-05-16T18:27:31.190Z,96785.41
2023-05-16T18:29:57.632Z,96801.41
2023-05-16T18:32:24.242Z,96796.09
2023-05-16T18:34:50.761Z,96803.31
2023-05-16T18:37:17.339Z,96812.19
2023-05-16T18:39:44.001Z,96799.91
2023-05-16T18:42:10.591Z,96821.00
2023-05-16T18:44:37.123Z,96798.31
2023-05-16T18:47:03.842Z,96816.84
2023-05-16T18:49:30.383Z,96829.25
2023-05-16T18:51:56.889Z,96826.63
2023-05-16T18:54:24.452Z,96844.63
2023-05-16T18:56:51.236Z,96850.84
2023-05-16T18:59:17.808Z,96847.41
2023-05-16T19:01:44.444Z,96856.41
2023-05-16T19:04:21.481Z,96863.38
2023-05-16T19:06:48.344Z,96840.81
2023-05-16T19:09:14.943Z,96861.78
2023-05-16T19:11:41.426Z,96846.38
2023-05-16T19:14:07.988Z,96859.63
2023-05-16T19:16:34.559Z,96874.44
2023-05-16T19:19:01.214Z,96895.19
2023-05-16T19:21:27.931Z,96876.50
2023-05-16T19:23:54.353Z,96875.75
2023-05-16T19:26:20.954Z,96895.09
2023-05-16T19:28:47.614Z,96888.44
2023-05-16T19:31:14.103Z,96868.78
2023-05-16T19:33:40.676Z,96902.06
2023-05-16T19:36:07.641Z,96887.63
2023-05-16T19:38:34.252Z,96893.03
2023-05-16T19:41:00.747Z,96889.66
2023-05-16T19:43:27.454Z,96900.97
2023-05-16T19:45:53.958Z,96885.28
2023-05-16T19:48:20.544Z,96917.19
2023-05-16T19:50:47.780Z,96905.25
2023-05-16T19:53:14.243Z,96897.09
2023-05-16T19:55:40.828Z,96907.44
2023-05-16T19:58:07.669Z,96926.59
2023-05-16T20:00:34.094Z,96907.38
2023-05-16T20:03:00.645Z,96889.69
2023-05-16T20:05:27.569Z,96899.50
2023-05-16T20:07:54.203Z,96909.66
2023-05-16T20:10:22.019Z,96909.13
2023-05-16T20:12:48.837Z,96898.50
2023-05-16T20:15:15.330Z,96947.59
2023-05-16T20:17:41.812Z,96925.03
2023-05-16T20:20:08.948Z,96893.81
2023-05-16T20:22:35.556Z,96925.03
2023-05-16T20:25:01.964Z,96920.34
2023-05-16T20:27:29.756Z,96919.69
2023-05-16T20:29:58.164Z,96881.69
2023-05-16T20:32:24.579Z,96902.78
2023-05-16T20:34:51.234Z,96935.06
2023-05-16T20:37:17.789Z,96921.00
2023-05-16T20:39:44.389Z,96938.28
2023-05-16T20:42:11.165Z,96927.50
2023-05-16T20:44:37.946Z,96925.66
2023-05-16T20:47:04.815Z,96927.88
2023-05-16T20:49:31.467Z,96929.16
2023-05-16T20:51:58.149Z,96901.53
2023-05-16T20:54:24.877Z,96912.72
2023-05-16T20:56:51.718Z,96913.84
2023-05-16T20:59:18.249Z,96921.25
2023-05-16T21:01:44.700Z,96925.66
2023-05-16T21:04:11.671Z,96939.31
2023-05-16T21:06:38.149Z,96924.81
2023-05-16T21:09:04.664Z,96918.47
2023-05-16T21:11:31.567Z,96933.13
2023-05-16T21:13:58.260Z,96936.09
2023-05-16T21:16:24.749Z,96939.75
2023-05-16T21:18:51.490Z,96936.16
2023-05-16T21:21:18.243Z,96941.34
2023-05-16T21:23:44.746Z,96947.94
2023-05-16T21:26:11.377Z,96955.22
2023-05-16T21:28:46.004Z,96957.97
2023-05-16T21:31:21.049Z,96947.38
2023-05-16T21:33:47.596Z,96973.84
2023-05-16T21:36:14.095Z,96959.50
2023-05-16T21:38:40.593Z,96963.88
2023-05-16T21:41:07.077Z,96954.63
2023-05-16T21:43:33.618Z,96958.75
2023-05-16T21:46:00.186Z,96964.38
2023-05-16T21:48:26.690Z,96972.19
2023-05-16T21:50:53.144Z,96966.03
2023-05-16T21:53:19.671Z,96990.78
2023-05-16T21:55:46.133Z,96989.31
2023-05-16T21:58:12.574Z,96977.84
2023-05-16T22:00:39.251Z,96986.31
2023-05-16T22:03:05.884Z,96990.78
2023-05-16T22:05:32.540Z,96991.41
2023-05-16T22:07:59.075Z,96971.41
2023-05-16T22:10:25.523Z,96983.00
2023-05-16T22:12:52.040Z,96993.53
2023-05-16T22:15:18.484Z,97004.81
2023-05-16T22:17:44.982Z,96990.91
2023-05-16T22:20:11.739Z,97005.25
2023-05-16T22:22:38.346Z,96998.63
2023-05-16T22:25:05.007Z,97008.75
2023-05-16T22:27:31.493Z,96997.03
2023-05-16T22:29:57.958Z,97003.94
2023-05-16T22:32:24.430Z,97001.09
2023-05-16T22:34:50.910Z,97006.59
2023-05-16T22:37:17.520Z,97029.16
2023-05-16T22:39:43.942Z,97035.00
2023-05-16T22:42:10.476Z,97012.31
2023-05-16T22:44:37.560Z,97021.19
2023-05-16T22:47:04.143Z,97018.97
2023-05-16T22:49:30.670Z,97016.44
2023-05-16T22:51:57.299Z,97040.59
2023-05-16T22:54:23.712Z,96997.53
2023-05-16T22:56:50.145Z,97030.84
2023-05-16T22:59:16.603Z,97030.13
2023-05-16T23:01:43.106Z,97015.88
2023-05-16T23:04:09.714Z,97019.06
2023-05-16T23:06:36.406Z,97036.00
2023-05-16T23:09:02.890Z,97020.25
2023-05-16T23:11:29.381Z,97033.19
2023-05-16T23:13:56.150Z,97026.19
2023-05-16T23:16:22.646Z,97033.13
2023-05-16T23:18:49.269Z,97042.63
2023-05-16T23:21:15.926Z,97049.94
2023-05-16T23:23:42.394Z,97052.06
2023-05-16T23:26:08.906Z,97071.53
2023-05-16T23:28:35.874Z,97062.81
2023-05-16T23:31:02.389Z,97069.63
2023-05-16T23:33:28.954Z,97061.13
2023-05-16T23:35:55.716Z,97044.59
2023-05-16T23:38:22.183Z,97074.47
2023-05-16T23:40:48.629Z,97056.41
2023-05-16T23:43:15.129Z,97068.03
2023-05-16T23:45:41.684Z,97069.13
2023-05-16T23:48:08.253Z,97062.97
2023-05-16T23:50:34.948Z,97062.97
2023-05-16T23:53:01.468Z,97085.50
2023-05-16T23:55:28.327Z,97072.63
2023-05-16T23:57:55.281Z,97065.97
